Time;durP1;ratioP1;P1;durP2;ratioP2;P2;SDS_P1;SDS_P2;PMS_P1;PMS_P2;Temp;Humidity;BMP_temperature;BMP_pressure;BME280_temperature;BME280_humidity;BME280_pressure;Samples;Min_cycle;Max_cycle;Signal;HPM_P1;HPM_P2
2023/05/13 00:01:07;;;;;;;5.90;2.70;;;14.10;99.90;;;;;;5036080;28;20546;-36
2023/05/13 00:03:33;;;;;;;6.88;3.17;;;14.00;99.90;;;;;;5031346;28;20137;-36
2023/05/13 00:05:58;;;;;;;5.78;3.58;;;14.00;99.90;;;;;;5036883;28;20079;-36
2023/05/13 00:08:24;;;;;;;8.20;3.20;;;13.90;99.90;;;;;;5035116;28;20048;-36
2023/05/13 00:10:50;;;;;;;4.55;2.92;;;13.90;99.90;;;;;;5035638;28;20049;-36
2023/05/13 00:13:16;;;;;;;5.80;2.97;;;13.80;99.90;;;;;;5032894;28;20114;-36
2023/05/13 00:15:41;;;;;;;7.40;2.92;;;13.80;99.90;;;;;;5040284;28;20048;-36
2023/05/13 00:18:07;;;;;;;7.72;4.13;;;13.80;99.90;;;;;;5032493;28;20444;-36
2023/05/13 00:20:33;;;;;;;9.52;3.15;;;13.70;99.90;;;;;;5033542;28;20045;-36
2023/05/13 00:22:58;;;;;;;4.60;3.10;;;13.70;99.90;;;;;;5037907;28;20065;-36
2023/05/13 00:25:24;;;;;;;7.28;3.63;;;13.60;99.90;;;;;;5033553;28;20045;-36
2023/05/13 00:27:51;;;;;;;6.68;3.83;;;13.60;99.90;;;;;;5033874;28;20053;-36
2023/05/13 00:30:16;;;;;;;6.93;3.53;;;13.50;99.90;;;;;;5034892;28;20064;-36
2023/05/13 00:32:42;;;;;;;8.20;4.38;;;13.50;99.90;;;;;;5030384;28;21249;-36
2023/05/13 00:35:08;;;;;;;15.23;3.90;;;13.40;99.90;;;;;;5039650;28;20044;-36
2023/05/13 00:37:34;;;;;;;10.77;4.65;;;13.40;99.90;;;;;;5043588;28;20589;-36
2023/05/13 00:40:00;;;;;;;5.93;3.60;;;13.40;99.90;;;;;;5034786;28;20045;-36
2023/05/13 00:42:26;;;;;;;7.68;3.72;;;13.40;99.90;;;;;;5034349;28;20048;-36
2023/05/13 00:44:51;;;;;;;9.57;4.32;;;13.40;99.90;;;;;;5031438;28;20049;-36
2023/05/13 00:47:17;;;;;;;8.80;4.15;;;13.30;99.90;;;;;;5033090;28;20061;-36
2023/05/13 00:49:43;;;;;;;12.60;3.83;;;13.20;99.90;;;;;;5033404;28;20054;-36
2023/05/13 00:52:09;;;;;;;8.70;4.25;;;13.20;99.90;;;;;;5033514;28;20205;-36
2023/05/13 00:54:34;;;;;;;6.30;4.00;;;13.20;99.90;;;;;;5033860;28;20045;-36
2023/05/13 00:57:00;;;;;;;7.47;4.43;;;13.10;99.90;;;;;;5034517;28;20451;-36
2023/05/13 00:59:28;;;;;;;9.63;4.72;;;13.10;99.90;;;;;;5034994;28;20160;-36
2023/05/13 01:02:41;;;;;;;8.23;4.50;;;13.10;99.90;;;;;;5029991;28;20083;-36
2023/05/13 01:05:33;;;;;;;7.28;3.88;;;13.00;99.90;;;;;;5020447;28;20085;-36
2023/05/13 01:08:20;;;;;;;10.57;4.10;;;13.00;99.90;;;;;;5017397;28;20634;-36
2023/05/13 01:11:07;;;;;;;11.65;4.28;;;13.00;99.90;;;;;;5028054;28;20073;-36
2023/05/13 01:13:38;;;;;;;9.65;4.20;;;12.90;99.90;;;;;;5031210;28;20061;-36
2023/05/13 01:16:15;;;;;;;9.20;4.43;;;12.90;99.90;;;;;;5031410;28;20069;-36
2023/05/13 01:18:44;;;;;;;7.38;4.00;;;12.80;99.90;;;;;;5024656;28;20052;-36
2023/05/13 01:21:11;;;;;;;7.40;3.63;;;12.80;99.90;;;;;;5024949;28;20053;-36
2023/05/13 01:23:37;;;;;;;9.52;4.60;;;12.80;99.90;;;;;;5033624;28;20060;-36
2023/05/13 01:26:02;;;;;;;9.70;5.25;;;12.70;99.90;;;;;;5031472;28;20055;-36
2023/05/13 01:28:28;;;;;;;7.60;4.65;;;12.70;99.90;;;;;;5032460;28;20049;-36
2023/05/13 01:30:55;;;;;;;11.50;5.47;;;12.70;99.90;;;;;;5027321;28;20041;-36
2023/05/13 01:33:23;;;;;;;10.52;4.95;;;12.60;99.90;;;;;;5027179;28;20133;-36
2023/05/13 01:35:49;;;;;;;7.07;4.50;;;12.60;99.90;;;;;;5023803;28;20049;-36
2023/05/13 01:38:17;;;;;;;7.63;4.47;;;12.50;99.90;;;;;;5033514;28;20056;-36
2023/05/13 01:40:43;;;;;;;6.88;4.72;;;12.50;99.90;;;;;;5025532;28;20064;-36
2023/05/13 01:43:09;;;;;;;12.27;4.85;;;12.50;99.90;;;;;;5037583;28;20103;-36
2023/05/13 01:45:35;;;;;;;6.55;4.60;;;12.50;99.90;;;;;;5028114;28;20041;-36
2023/05/13 01:48:00;;;;;;;8.20;4.32;;;12.40;99.90;;;;;;5025209;28;20045;-36
2023/05/13 01:50:26;;;;;;;7.57;4.35;;;12.40;99.90;;;;;;5030893;28;20049;-36
2023/05/13 01:52:51;;;;;;;7.60;4.90;;;12.40;99.90;;;;;;5032562;28;20053;-36
2023/05/13 01:55:18;;;;;;;6.75;4.20;;;12.40;99.90;;;;;;5039274;28;20543;-36
2023/05/13 01:57:43;;;;;;;9.70;5.30;;;12.40;99.90;;;;;;5040392;28;20056;-36
2023/05/13 02:00:09;;;;;;;8.95;3.90;;;12.40;99.90;;;;;;5031879;28;20432;-36
2023/05/13 02:02:35;;;;;;;7.00;4.75;;;12.30;99.90;;;;;;5015964;28;20140;-36
2023/05/13 02:05:01;;;;;;;7.15;4.47;;;12.30;99.90;;;;;;5022117;28;20128;-36
2023/05/13 02:07:26;;;;;;;6.00;4.25;;;12.30;99.90;;;;;;5026066;28;20053;-36
2023/05/13 02:09:58;;;;;;;9.50;4.65;;;12.30;99.90;;;;;;5037539;28;20060;-36
2023/05/13 02:12:25;;;;;;;7.30;4.35;;;12.30;99.90;;;;;;5022548;28;20054;-36
2023/05/13 02:14:51;;;;;;;11.95;4.80;;;12.20;99.90;;;;;;5017175;28;20575;-36
2023/05/13 02:17:16;;;;;;;7.18;4.50;;;12.20;99.90;;;;;;5020584;28;20423;-36
2023/05/13 02:19:42;;;;;;;7.80;5.10;;;12.20;99.90;;;;;;5023329;28;20053;-36
2023/05/13 02:22:08;;;;;;;7.72;4.45;;;12.10;99.90;;;;;;5035018;28;20129;-36
2023/05/13 02:24:35;;;;;;;8.38;5.00;;;12.10;99.90;;;;;;5025523;28;20054;-36
2023/05/13 02:27:01;;;;;;;8.00;4.57;;;12.00;99.90;;;;;;5018655;28;21640;-36
2023/05/13 02:29:26;;;;;;;10.13;5.43;;;12.00;99.90;;;;;;5031398;28;20083;-36
2023/05/13 02:31:52;;;;;;;8.85;4.53;;;12.00;99.90;;;;;;5028947;28;20076;-36
2023/05/13 02:34:18;;;;;;;7.72;4.45;;;11.90;99.90;;;;;;5014936;28;20089;-36
2023/05/13 02:36:43;;;;;;;8.85;4.50;;;11.90;99.90;;;;;;5030429;28;20459;-36
2023/05/13 02:39:09;;;;;;;8.98;4.75;;;11.90;99.90;;;;;;5030929;28;20092;-36
2023/05/13 02:41:34;;;;;;;9.88;5.40;;;11.90;99.90;;;;;;5019073;28;20088;-36
2023/05/13 02:44:00;;;;;;;9.63;4.90;;;11.80;99.90;;;;;;5021570;28;20415;-36
2023/05/13 02:46:26;;;;;;;9.73;4.32;;;11.80;99.90;;;;;;5029190;28;20507;-36
2023/05/13 02:48:51;;;;;;;10.52;5.30;;;11.80;99.90;;;;;;5040786;28;20151;-36
2023/05/13 02:51:17;;;;;;;7.93;4.57;;;11.80;99.90;;;;;;5017585;28;20045;-36
2023/05/13 02:53:42;;;;;;;9.38;4.80;;;11.80;99.90;;;;;;5014366;28;20072;-36
2023/05/13 02:56:08;;;;;;;7.45;4.20;;;11.80;99.90;;;;;;5033542;28;20495;-36
2023/05/13 02:58:34;;;;;;;9.05;4.70;;;11.70;99.90;;;;;;5044082;28;20045;-36
2023/05/13 03:01:00;;;;;;;9.40;5.05;;;11.70;99.90;;;;;;5027070;28;20045;-36
2023/05/13 03:03:26;;;;;;;15.43;5.22;;;11.70;99.90;;;;;;5033797;28;20125;-36
2023/05/13 03:05:51;;;;;;;7.28;4.35;;;11.70;99.90;;;;;;5036626;28;20041;-36
2023/05/13 03:08:17;;;;;;;8.35;4.55;;;11.70;99.90;;;;;;5020322;28;20057;-36
2023/05/13 03:10:42;;;;;;;9.35;5.05;;;11.60;99.90;;;;;;5030124;28;20072;-36
2023/05/13 03:13:08;;;;;;;13.68;5.45;;;11.70;99.90;;;;;;5037683;28;20482;-36
2023/05/13 03:15:33;;;;;;;10.52;4.93;;;11.60;99.90;;;;;;5029707;28;20144;-36
2023/05/13 03:17:59;;;;;;;12.73;4.97;;;11.60;99.90;;;;;;5023292;28;20059;-36
2023/05/13 03:20:25;;;;;;;11.18;5.50;;;11.60;99.90;;;;;;5026815;28;20499;-36
2023/05/13 03:22:51;;;;;;;7.40;4.97;;;11.60;99.90;;;;;;5023314;28;20707;-36
2023/05/13 03:25:16;;;;;;;8.93;5.15;;;11.50;99.90;;;;;;5024849;28;20056;-36
2023/05/13 03:27:42;;;;;;;10.98;5.28;;;11.50;99.90;;;;;;5027297;28;20128;-36
2023/05/13 03:30:08;;;;;;;9.15;5.25;;;11.50;99.90;;;;;;5031153;28;20111;-36
2023/05/13 03:32:34;;;;;;;15.70;5.30;;;11.50;99.90;;;;;;5040045;28;20362;-36
2023/05/13 03:35:00;;;;;;;11.73;5.28;;;11.40;99.90;;;;;;5021730;28;20462;-36
2023/05/13 03:37:26;;;;;;;11.77;6.60;;;11.40;99.90;;;;;;5024980;28;20060;-36
2023/05/13 03:39:52;;;;;;;10.75;6.15;;;11.40;99.90;;;;;;5034961;28;20057;-36
2023/05/13 03:42:19;;;;;;;9.70;5.85;;;11.40;99.90;;;;;;5037496;28;20075;-36
2023/05/13 03:44:44;;;;;;;8.30;5.65;;;11.30;99.90;;;;;;5043034;28;20091;-36
2023/05/13 03:47:10;;;;;;;9.70;6.60;;;11.30;99.90;;;;;;5040449;28;20068;-36
2023/05/13 03:49:36;;;;;;;11.45;7.22;;;11.20;99.90;;;;;;5033704;28;20490;-36
2023/05/13 03:52:02;;;;;;;13.90;6.47;;;11.20;99.90;;;;;;5026613;28;20505;-36
2023/05/13 03:54:27;;;;;;;11.77;6.60;;;11.20;99.90;;;;;;5041206;28;20055;-36
2023/05/13 03:56:53;;;;;;;13.60;7.97;;;11.20;99.90;;;;;;5024850;28;21365;-36
2023/05/13 03:59:18;;;;;;;11.95;6.47;;;11.20;99.90;;;;;;5026945;28;20137;-36
2023/05/13 04:01:44;;;;;;;10.57;6.45;;;11.20;99.90;;;;;;5034946;28;20940;-36
2023/05/13 04:04:10;;;;;;;11.93;6.82;;;11.20;99.90;;;;;;5037643;28;20045;-36
2023/05/13 04:06:35;;;;;;;10.55;6.85;;;11.20;99.90;;;;;;5029046;28;20136;-36
2023/05/13 04:09:03;;;;;;;11.20;7.00;;;11.20;99.90;;;;;;5048925;28;20049;-36
2023/05/13 04:11:30;;;;;;;10.77;5.93;;;11.20;99.90;;;;;;5031132;28;20050;-36
2023/05/13 04:13:56;;;;;;;14.25;7.32;;;11.20;99.90;;;;;;5026721;28;20534;-36
2023/05/13 04:16:22;;;;;;;10.75;6.60;;;11.20;99.90;;;;;;5044986;28;20053;-36
2023/05/13 04:18:47;;;;;;;11.98;7.43;;;11.20;99.90;;;;;;5045690;28;20052;-36
2023/05/13 04:21:13;;;;;;;12.52;7.10;;;11.20;99.90;;;;;;5044504;28;20072;-36
2023/05/13 04:23:39;;;;;;;12.52;7.75;;;11.20;99.90;;;;;;5039033;28;20085;-36
2023/05/13 04:26:04;;;;;;;10.85;7.53;;;11.10;99.90;;;;;;5026165;28;20488;-36
2023/05/13 04:28:30;;;;;;;12.23;7.07;;;11.10;99.90;;;;;;5034331;28;20068;-36
2023/05/13 04:30:56;;;;;;;10.65;7.03;;;11.10;99.90;;;;;;5032870;28;20132;-36
2023/05/13 04:33:22;;;;;;;10.52;7.10;;;11.20;99.90;;;;;;5035224;28;20049;-36
2023/05/13 04:35:47;;;;;;;9.68;6.38;;;11.20;99.90;;;;;;5024379;28;20048;-35
2023/05/13 04:38:13;;;;;;;9.77;6.78;;;11.20;99.90;;;;;;5027227;28;20058;-36
2023/05/13 04:40:39;;;;;;;10.57;6.70;;;11.20;99.90;;;;;;5038003;28;20045;-36
2023/05/13 04:43:04;;;;;;;10.07;7.32;;;11.30;99.90;;;;;;5032098;28;20056;-36
2023/05/13 04:45:30;;;;;;;10.98;7.00;;;11.20;99.90;;;;;;5029075;28;20053;-36
2023/05/13 04:47:56;;;;;;;22.88;7.75;;;11.30;99.90;;;;;;5038680;28;20136;-36
2023/05/13 04:50:22;;;;;;;12.65;6.82;;;11.30;99.90;;;;;;5026137;28;20368;-36
2023/05/13 04:52:48;;;;;;;16.42;7.75;;;11.30;99.90;;;;;;5035974;28;20049;-36
2023/05/13 04:55:13;;;;;;;15.52;7.30;;;11.40;99.90;;;;;;5025507;28;20083;-36
2023/05/13 04:57:39;;;;;;;13.90;7.68;;;11.40;99.90;;;;;;5028555;28;20128;-36
2023/05/13 05:00:07;;;;;;;10.82;6.70;;;11.40;99.90;;;;;;5020884;28;20106;-36
2023/05/13 05:02:32;;;;;;;11.00;6.95;;;11.50;99.90;;;;;;5037974;28;20075;-36
2023/05/13 05:04:58;;;;;;;12.50;7.28;;;11.50;99.90;;;;;;5035221;28;20057;-36
2023/05/13 05:07:24;;;;;;;19.45;7.35;;;11.50;99.90;;;;;;5035033;28;20049;-36
2023/05/13 05:09:50;;;;;;;12.30;6.97;;;11.60;99.90;;;;;;5026172;28;20131;-36
2023/05/13 05:12:15;;;;;;;13.18;7.72;;;11.60;99.90;;;;;;5022035;28;20084;-36
2023/05/13 05:14:41;;;;;;;11.80;7.40;;;11.70;99.90;;;;;;5042948;28;20064;-36
2023/05/13 05:17:07;;;;;;;13.45;7.38;;;11.70;99.90;;;;;;5018115;28;20049;-36
2023/05/13 05:19:32;;;;;;;11.50;7.00;;;11.70;99.90;;;;;;5036233;28;20053;-36
2023/05/13 05:21:58;;;;;;;12.25;7.63;;;11.80;99.90;;;;;;5044938;28;20056;-36
2023/05/13 05:24:24;;;;;;;15.80;6.50;;;11.80;99.90;;;;;;5044964;28;20111;-36
2023/05/13 05:26:49;;;;;;;13.15;7.55;;;11.80;99.90;;;;;;5039991;28;20048;-36
2023/05/13 05:29:15;;;;;;;23.67;8.07;;;11.90;99.90;;;;;;5045182;28;20585;-36
2023/05/13 05:31:40;;;;;;;11.50;7.40;;;11.90;99.90;;;;;;5016750;28;20053;-36
2023/05/13 05:34:06;;;;;;;15.02;8.00;;;12.00;99.90;;;;;;5024063;28;20128;-36
2023/05/13 05:36:35;;;;;;;14.57;7.32;;;12.10;99.90;;;;;;5040392;28;20187;-36
2023/05/13 05:39:00;;;;;;;9.43;5.75;;;12.20;99.90;;;;;;5034607;28;20059;-36
2023/05/13 05:41:26;;;;;;;10.00;5.65;;;12.20;99.90;;;;;;5021623;28;20427;-36
2023/05/13 05:43:52;;;;;;;11.48;6.35;;;12.30;99.90;;;;;;5033007;28;20083;-36
2023/05/13 05:46:17;;;;;;;10.32;7.30;;;12.40;99.90;;;;;;5018379;28;20045;-36
2023/05/13 05:48:43;;;;;;;10.02;6.07;;;12.50;99.90;;;;;;5018514;28;20080;-36
2023/05/13 05:51:09;;;;;;;12.88;6.65;;;12.50;99.90;;;;;;5015429;28;20407;-36
2023/05/13 05:53:36;;;;;;;9.13;6.65;;;12.60;99.90;;;;;;5026708;28;20543;-36
2023/05/13 05:56:03;;;;;;;10.18;5.93;;;12.60;99.90;;;;;;5031591;28;20126;-36
2023/05/13 05:58:28;;;;;;;13.38;6.85;;;12.70;99.90;;;;;;5034738;28;20076;-36
2023/05/13 06:00:55;;;;;;;9.05;5.28;;;12.80;99.90;;;;;;5028335;28;20451;-36
2023/05/13 06:03:21;;;;;;;9.02;5.40;;;12.90;99.90;;;;;;5032788;28;20415;-36
2023/05/13 06:05:47;;;;;;;11.15;5.55;;;12.90;99.90;;;;;;5034470;28;20052;-36
2023/05/13 06:08:12;;;;;;;7.85;5.10;;;13.00;99.90;;;;;;5045622;28;20057;-36
2023/05/13 06:10:38;;;;;;;7.00;5.45;;;13.10;99.90;;;;;;5028710;28;20469;-36
2023/05/13 06:13:04;;;;;;;15.48;5.57;;;13.20;99.90;;;;;;5025675;28;20045;-36
2023/05/13 06:15:30;;;;;;;7.80;5.35;;;13.30;99.90;;;;;;5029751;28;20072;-36
2023/05/13 06:17:56;;;;;;;6.93;4.78;;;13.30;99.90;;;;;;5039396;28;20079;-36
2023/05/13 06:20:22;;;;;;;9.05;5.93;;;13.40;99.90;;;;;;5021901;28;20060;-36
2023/05/13 06:22:48;;;;;;;10.63;6.30;;;13.50;99.90;;;;;;5023223;28;20041;-36
2023/05/13 06:25:13;;;;;;;9.90;5.75;;;13.60;99.90;;;;;;5039156;28;20064;-36
2023/05/13 06:27:39;;;;;;;7.57;5.20;;;13.60;99.90;;;;;;5018452;28;20084;-36
2023/05/13 06:30:05;;;;;;;7.57;5.32;;;13.70;99.90;;;;;;5034589;28;20147;-36
2023/05/13 06:32:31;;;;;;;8.15;5.05;;;13.80;99.90;;;;;;5028081;28;20057;-37
2023/05/13 06:34:57;;;;;;;6.40;4.40;;;13.80;99.90;;;;;;5041965;28;20048;-36
2023/05/13 06:37:23;;;;;;;8.85;5.65;;;14.00;99.90;;;;;;5037864;28;20053;-36
2023/05/13 06:39:48;;;;;;;8.90;6.32;;;14.00;99.90;;;;;;5034860;28;20093;-36
2023/05/13 06:42:14;;;;;;;8.82;5.60;;;14.10;99.90;;;;;;5031352;28;20068;-36
2023/05/13 06:44:40;;;;;;;12.73;5.45;;;14.20;99.90;;;;;;5034972;28;20426;-36
2023/05/13 06:47:06;;;;;;;8.02;5.35;;;14.30;99.90;;;;;;5030463;28;20049;-36
2023/05/13 06:49:32;;;;;;;9.63;5.20;;;14.40;99.90;;;;;;5020284;28;20744;-36
2023/05/13 06:51:58;;;;;;;7.35;5.40;;;14.40;99.90;;;;;;5036171;28;20487;-36
2023/05/13 06:54:25;;;;;;;7.10;4.70;;;14.50;99.90;;;;;;5029380;28;20060;-36
2023/05/13 06:56:51;;;;;;;7.72;4.88;;;14.60;99.90;;;;;;5025862;28;20107;-36
2023/05/13 06:59:16;;;;;;;7.65;5.05;;;14.70;99.90;;;;;;5020134;28;20077;-36
2023/05/13 07:01:42;;;;;;;8.43;5.13;;;14.80;99.90;;;;;;5019863;28;20061;-36
2023/05/13 07:04:08;;;;;;;7.32;4.75;;;14.90;99.90;;;;;;5036679;28;20112;-37
2023/05/13 07:06:34;;;;;;;8.77;4.70;;;15.00;99.90;;;;;;5039005;28;20512;-36
2023/05/13 07:09:00;;;;;;;6.65;4.45;;;15.10;99.90;;;;;;5019275;28;20091;-36
2023/05/13 07:11:27;;;;;;;7.13;4.78;;;15.20;99.90;;;;;;5027648;28;20051;-36
2023/05/13 07:13:54;;;;;;;7.65;5.32;;;15.30;99.90;;;;;;5029374;28;20076;-36
2023/05/13 07:16:20;;;;;;;10.15;5.35;;;15.40;99.90;;;;;;5023433;28;20072;-36
2023/05/13 07:18:45;;;;;;;12.35;5.45;;;15.50;99.90;;;;;;5036822;28;20480;-36
2023/05/13 07:21:12;;;;;;;7.30;4.32;;;15.50;99.90;;;;;;5034872;28;20060;-36
2023/05/13 07:23:38;;;;;;;8.25;5.00;;;15.60;99.90;;;;;;5037814;28;20047;-36
2023/05/13 07:26:03;;;;;;;6.53;4.15;;;15.70;99.90;;;;;;5034736;28;20057;-36
2023/05/13 07:28:30;;;;;;;7.18;4.35;;;15.80;99.90;;;;;;5027790;28;20052;-36
2023/05/13 07:30:56;;;;;;;8.15;4.20;;;15.90;99.90;;;;;;5030703;28;20084;-36
2023/05/13 07:33:21;;;;;;;7.05;4.40;;;16.00;99.90;;;;;;5016999;28;20077;-36
2023/05/13 07:35:47;;;;;;;7.93;4.47;;;16.00;99.90;;;;;;5022708;28;20071;-36
2023/05/13 07:38:13;;;;;;;11.65;4.55;;;16.10;99.90;;;;;;5016239;28;21359;-36
2023/05/13 07:40:39;;;;;;;8.43;4.22;;;16.20;99.90;;;;;;5025606;28;20045;-36
2023/05/13 07:43:04;;;;;;;14.80;4.07;;;16.30;99.90;;;;;;5028485;28;20045;-36
2023/05/13 07:45:31;;;;;;;6.78;4.40;;;16.40;99.90;;;;;;5038715;28;20106;-36
2023/05/13 07:47:56;;;;;;;8.77;4.03;;;16.50;99.90;;;;;;5027195;28;20048;-36
2023/05/13 07:50:22;;;;;;;5.97;4.18;;;16.60;99.90;;;;;;5035075;28;20421;-36
2023/05/13 07:52:49;;;;;;;6.78;3.05;;;16.70;99.90;;;;;;5033074;28;20061;-36
2023/05/13 07:55:15;;;;;;;7.13;3.97;;;16.80;99.90;;;;;;5030025;28;20135;-36
2023/05/13 07:57:40;;;;;;;4.95;3.55;;;16.90;99.90;;;;;;5021554;28;20071;-36
2023/05/13 08:00:07;;;;;;;7.95;3.17;;;17.00;99.90;;;;;;5016280;28;20062;-36
2023/05/13 08:02:33;;;;;;;7.90;3.08;;;17.10;99.90;;;;;;5016052;28;20044;-36
2023/05/13 08:05:02;;;;;;;6.97;3.47;;;17.20;99.90;;;;;;5038081;28;20053;-37
2023/05/13 08:07:28;;;;;;;5.55;3.75;;;17.30;99.90;;;;;;5022957;28;20647;-36
2023/05/13 08:09:53;;;;;;;7.32;3.28;;;17.40;99.90;;;;;;5023366;28;20439;-36
2023/05/13 08:12:19;;;;;;;6.35;3.67;;;17.50;99.90;;;;;;5023133;28;20053;-36
2023/05/13 08:14:45;;;;;;;6.88;4.47;;;17.60;99.90;;;;;;5033348;28;20418;-36
2023/05/13 08:17:10;;;;;;;6.80;4.20;;;17.80;99.90;;;;;;5020513;28;20057;-36
2023/05/13 08:19:37;;;;;;;4.97;3.50;;;17.90;99.90;;;;;;5022486;28;20041;-36
2023/05/13 08:22:03;;;;;;;7.82;4.13;;;17.90;99.90;;;;;;5023837;28;20067;-36
2023/05/13 08:24:28;;;;;;;6.80;3.35;;;18.00;99.90;;;;;;5028293;28;20130;-36
2023/05/13 08:26:56;;;;;;;6.05;3.67;;;18.00;99.90;;;;;;5020512;28;20141;-36
2023/05/13 08:29:22;;;;;;;7.50;3.28;;;18.10;99.90;;;;;;5021749;28;20467;-37
2023/05/13 08:31:48;;;;;;;4.97;3.38;;;18.20;99.90;;;;;;5028466;28;20049;-36
2023/05/13 08:34:14;;;;;;;5.68;3.63;;;18.30;99.90;;;;;;5016563;28;20505;-36
2023/05/13 08:36:40;;;;;;;8.10;3.85;;;18.40;99.90;;;;;;5009496;28;20050;-36
2023/05/13 08:39:06;;;;;;;7.40;3.53;;;18.50;99.90;;;;;;5008175;28;20110;-36
2023/05/13 08:41:33;;;;;;;8.30;3.67;;;18.60;99.90;;;;;;5025664;28;20053;-37
2023/05/13 08:44:02;;;;;;;5.22;3.47;;;18.80;99.90;;;;;;5037062;28;20506;-36
2023/05/13 08:46:31;;;;;;;4.95;3.35;;;18.80;99.90;;;;;;5032597;28;20073;-37
2023/05/13 08:48:57;;;;;;;4.78;2.90;;;19.00;99.90;;;;;;5027389;28;20073;-37
2023/05/13 08:51:23;;;;;;;5.60;3.35;;;19.00;99.90;;;;;;5023479;28;20037;-36
2023/05/13 08:53:51;;;;;;;5.78;2.90;;;19.10;99.90;;;;;;5028243;28;20041;-36
2023/05/13 08:56:16;;;;;;;6.30;3.42;;;19.30;99.90;;;;;;5033986;28;20152;-36
2023/05/13 08:58:42;;;;;;;4.15;2.92;;;19.40;99.90;;;;;;5034483;28;20053;-36
2023/05/13 09:01:08;;;;;;;6.65;3.10;;;19.50;99.90;;;;;;5039975;28;20065;-38
2023/05/13 09:03:34;;;;;;;4.95;2.80;;;19.60;99.90;;;;;;5031733;28;20518;-36
2023/05/13 09:06:01;;;;;;;4.57;3.05;;;19.70;99.90;;;;;;5017333;28;20045;-36
2023/05/13 09:08:26;;;;;;;7.18;3.75;;;19.70;99.90;;;;;;5014164;28;20038;-36
2023/05/13 09:10:52;;;;;;;6.53;3.05;;;19.80;99.90;;;;;;5028528;28;20068;-36
2023/05/13 09:13:18;;;;;;;7.15;2.35;;;19.90;99.90;;;;;;5020683;28;20510;-36
2023/05/13 09:15:44;;;;;;;6.07;2.90;;;19.90;99.90;;;;;;5036272;28;20563;-37
2023/05/13 09:18:11;;;;;;;8.35;3.25;;;19.90;99.90;;;;;;5022241;28;20041;-36
2023/05/13 09:20:37;;;;;;;6.15;3.20;;;20.00;99.90;;;;;;5031123;28;20491;-36
2023/05/13 09:23:05;;;;;;;7.18;3.05;;;20.10;99.90;;;;;;5039006;28;20064;-36
2023/05/13 09:25:32;;;;;;;6.18;3.08;;;20.10;99.90;;;;;;5035095;28;20069;-36
2023/05/13 09:28:02;;;;;;;4.25;2.80;;;20.20;99.90;;;;;;5037842;28;20507;-37
2023/05/13 09:30:31;;;;;;;7.40;2.88;;;20.30;99.90;;;;;;5034059;28;20059;-36
2023/05/13 09:33:20;;;;;;;4.88;2.97;;;20.40;99.90;;;;;;5028222;28;20053;-36
2023/05/13 09:35:51;;;;;;;4.18;2.33;;;20.40;99.90;;;;;;5018311;28;20060;-36
2023/05/13 09:38:25;;;;;;;7.22;2.63;;;20.50;99.90;;;;;;5020871;28;20112;-36
2023/05/13 09:41:02;;;;;;;5.63;2.33;;;20.50;99.90;;;;;;5036458;28;20141;-36
2023/05/13 09:43:31;;;;;;;4.82;2.28;;;20.60;99.90;;;;;;5036102;28;20107;-36
2023/05/13 09:46:00;;;;;;;4.20;2.40;;;20.70;99.90;;;;;;5042485;28;20114;-36
2023/05/13 09:48:28;;;;;;;3.95;2.10;;;20.80;99.90;;;;;;5041283;28;20072;-36
2023/05/13 09:50:56;;;;;;;5.30;2.08;;;20.90;99.90;;;;;;5027059;28;20126;-36
2023/05/13 09:53:23;;;;;;;4.45;2.10;;;21.00;99.90;;;;;;5026500;28;20038;-36
2023/05/13 09:55:51;;;;;;;4.82;1.90;;;21.00;99.90;;;;;;5036146;28;20049;-36
2023/05/13 09:58:19;;;;;;;3.80;1.83;;;21.10;99.90;;;;;;5018081;28;20115;-36
2023/05/13 10:00:46;;;;;;;3.92;2.05;;;21.30;99.90;;;;;;5034452;28;20044;-36
2023/05/13 10:03:12;;;;;;;9.32;2.00;;;21.30;99.90;;;;;;5020718;28;20911;-36
2023/05/13 10:05:39;;;;;;;4.38;1.85;;;21.40;99.90;;;;;;5033575;28;20127;-37
2023/05/13 10:08:08;;;;;;;4.03;1.70;;;21.50;99.90;;;;;;5019298;28;20037;-36
2023/05/13 10:10:34;;;;;;;4.35;2.03;;;21.60;99.90;;;;;;5026386;28;20488;-36
2023/05/13 10:13:23;;;;;;;3.85;1.85;;;21.70;99.90;;;;;;5028238;28;20046;-36
2023/05/13 10:15:53;;;;;;;3.95;1.58;;;21.70;99.90;;;;;;5027633;28;20044;-36
2023/05/13 10:18:21;;;;;;;4.30;1.65;;;21.80;99.90;;;;;;5026069;28;20099;-35
2023/05/13 10:20:51;;;;;;;4.00;2.03;;;21.90;99.90;;;;;;5022638;28;20049;-36
2023/05/13 10:23:18;;;;;;;2.33;1.52;;;22.00;99.90;;;;;;5033691;28;21037;-35
2023/05/13 10:25:46;;;;;;;2.63;1.45;;;22.00;99.90;;;;;;5025889;28;20060;-35
2023/05/13 10:28:13;;;;;;;7.55;2.30;;;22.20;99.90;;;;;;5047725;28;20077;-35
2023/05/13 10:30:39;;;;;;;3.75;1.80;;;22.20;99.90;;;;;;5036628;28;20462;-35
2023/05/13 10:33:05;;;;;;;5.65;1.90;;;22.30;99.90;;;;;;5033861;28;20056;-35
2023/05/13 10:35:35;;;;;;;2.55;1.55;;;22.40;99.90;;;;;;5022883;28;20415;-35
2023/05/13 10:38:13;;;;;;;3.50;1.90;;;22.40;99.90;;;;;;5021129;28;20049;-35
2023/05/13 10:40:58;;;;;;;5.57;2.00;;;22.50;99.90;;;;;;5032469;28;20128;-35
2023/05/13 10:43:28;;;;;;;3.35;1.73;;;22.50;99.90;;;;;;5009953;28;20064;-35
2023/05/13 10:46:05;;;;;;;8.63;1.98;;;22.60;99.90;;;;;;5015744;28;20061;-36
2023/05/13 10:48:41;;;;;;;3.47;1.70;;;22.70;99.90;;;;;;5021298;28;20053;-35
2023/05/13 10:51:12;;;;;;;4.32;1.85;;;22.80;99.90;;;;;;5023106;28;20048;-35
2023/05/13 10:53:48;;;;;;;3.72;2.00;;;22.90;99.90;;;;;;5016412;28;20050;-35
2023/05/13 10:56:15;;;;;;;5.70;2.45;;;23.00;99.90;;;;;;5029315;28;20053;-35
2023/05/13 10:58:41;;;;;;;6.95;1.90;;;23.00;99.90;;;;;;5013461;28;20053;-37
2023/05/13 11:01:18;;;;;;;3.33;1.98;;;23.00;99.90;;;;;;5016916;28;20434;-37
2023/05/13 11:03:55;;;;;;;2.70;1.38;;;23.00;99.90;;;;;;5012440;28;20061;-37
2023/05/13 11:06:22;;;;;;;4.30;2.03;;;23.10;99.90;;;;;;5030626;28;20095;-38
2023/05/13 11:08:51;;;;;;;3.53;1.80;;;23.20;99.90;;;;;;5024145;28;20369;-37
2023/05/13 11:11:21;;;;;;;3.90;1.88;;;23.40;99.90;;;;;;5026350;28;22330;-37
2023/05/13 11:13:51;;;;;;;6.25;2.00;;;23.40;99.90;;;;;;5017627;28;20045;-37
2023/05/13 11:16:17;;;;;;;3.83;1.90;;;23.20;99.90;;;;;;5019747;28;20048;-37
2023/05/13 11:18:43;;;;;;;7.80;1.50;;;23.00;99.90;;;;;;5013847;28;20087;-37
2023/05/13 11:21:09;;;;;;;3.50;1.67;;;22.90;99.90;;;;;;5020532;28;20069;-37
2023/05/13 11:23:56;;;;;;;2.55;1.50;;;23.00;99.90;;;;;;5022286;28;20045;-37
2023/05/13 11:26:22;;;;;;;4.05;1.50;;;23.00;99.90;;;;;;5027117;28;20045;-37
2023/05/13 11:29:05;;;;;;;3.90;2.00;;;23.00;99.90;;;;;;5022372;28;20054;-37
2023/05/13 11:31:55;;;;;;;3.67;1.83;;;22.90;99.90;;;;;;5031780;28;20052;-37
2023/05/13 11:34:22;;;;;;;2.75;1.73;;;23.00;99.90;;;;;;5015759;28;20054;-37
2023/05/13 11:36:52;;;;;;;4.05;2.03;;;23.10;99.90;;;;;;5025655;28;20487;-37
2023/05/13 11:39:20;;;;;;;4.45;2.00;;;22.90;99.90;;;;;;5012246;28;20054;-37
2023/05/13 11:41:49;;;;;;;3.58;1.95;;;22.90;99.90;;;;;;5015374;28;20080;-37
2023/05/13 11:44:19;;;;;;;6.63;2.15;;;23.00;99.90;;;;;;5030177;28;20510;-37
2023/05/13 11:47:07;;;;;;;2.78;1.63;;;23.10;99.90;;;;;;5019807;28;20537;-37
2023/05/13 11:49:34;;;;;;;4.97;1.85;;;23.40;99.90;;;;;;5030488;28;20049;-36
2023/05/13 11:52:20;;;;;;;3.80;2.33;;;23.60;99.90;;;;;;5033255;28;20061;-37
2023/05/13 11:54:52;;;;;;;2.75;1.60;;;23.70;99.90;;;;;;5011716;28;20061;-37
2023/05/13 11:57:23;;;;;;;4.22;1.40;;;23.90;99.90;;;;;;5021814;28;20127;-37
2023/05/13 12:00:00;;;;;;;4.38;1.52;;;24.00;99.90;;;;;;5027298;28;20553;-37
2023/05/13 12:02:27;;;;;;;2.67;1.40;;;24.10;99.90;;;;;;5028274;28;20088;-36
2023/05/13 12:04:53;;;;;;;3.53;1.52;;;24.20;99.90;;;;;;5034421;28;20138;-37
2023/05/13 12:07:24;;;;;;;3.70;1.58;;;24.30;99.90;;;;;;5033529;28;20108;-37
2023/05/13 12:09:52;;;;;;;3.15;1.50;;;24.40;99.90;;;;;;5028859;28;20058;-36
2023/05/13 12:12:19;;;;;;;5.53;1.73;;;24.40;99.90;;;;;;5019889;28;20073;-38
2023/05/13 12:14:51;;;;;;;4.45;1.80;;;24.60;99.90;;;;;;5031851;28;20045;-37
2023/05/13 12:17:19;;;;;;;3.97;1.50;;;24.70;99.90;;;;;;5030741;28;20490;-37
2023/05/13 12:20:09;;;;;;;3.03;1.65;;;24.80;99.90;;;;;;5028493;28;20068;-38
2023/05/13 12:22:36;;;;;;;5.82;1.45;;;24.80;99.90;;;;;;5011402;28;20045;-37
2023/05/13 12:25:37;;;;;;;2.90;1.42;;;24.90;99.90;;;;;;5036396;28;20068;-36
2023/05/13 12:28:15;;;;;;;3.30;1.80;;;25.00;99.90;;;;;;5021643;28;20140;-37
2023/05/13 12:30:55;;;;;;;4.95;1.30;;;25.10;99.90;;;;;;5018208;28;20476;-37
2023/05/13 12:33:24;;;;;;;2.10;1.38;;;25.10;99.90;;;;;;5017692;28;20087;-36
2023/05/13 12:35:53;;;;;;;4.47;1.50;;;25.10;99.90;;;;;;5036130;28;20053;-37
2023/05/13 12:38:21;;;;;;;3.08;1.40;;;25.20;99.90;;;;;;5040515;28;20049;-36
2023/05/13 12:40:48;;;;;;;5.47;1.42;;;25.30;99.90;;;;;;5023821;28;20046;-37
2023/05/13 12:43:16;;;;;;;5.72;1.60;;;25.40;99.90;;;;;;5036691;28;20041;-37
2023/05/13 12:45:42;;;;;;;5.03;1.77;;;25.30;99.90;;;;;;5018186;28;20073;-36